NZWN Airport Information

Runway Information
Runway 16 Length 6352 ft width 148 ft
Elevation 41 ft Threshold 210 ft Heading 183
Runway 34 Length 6352 ft Width 148 ft
Elevation 23 ft Threshold 210 ft Heading 3
Airport Frequencies
Type APP Name APP Frequency 122.3 MHZ
Type ATIS Name ATIS Frequency 126.9 MHZ
Type GND Name GND Frequency 121.9 MHZ
Type TWR Name TWR Frequency 118.8 MHZ
Airport Navaids
Type NDB Name Newlands Frequency 358 KHZ
Type NDB Name Titahi Bay Frequency 234 KHZ
Type VOR-DME Name Wellington Frequency 112300 KHZ
Type NDB Name Wellington Frequency 298 KHZ
Airport Weather Information & NOTAM
ADDS - METARS form results

(2027 UTC 30 September 2022)
Data provider http://aviationweather.gov/metar/data/
 
METAR text: NZWN 302000Z AUTO 16006KT 9999 OVC029/// 10/06 Q1020 NOSIG
Conditions at: NZWN (WELLINGTON INTL , NZ) observed 2000 UTC 30 September 2022
Temperature: 10.0°C (50°F)
Dewpoint: 6.0°C (43°F) [RH = 76%]
Pressure (altimeter): 30.12 inches Hg (1020.0 mb)
Winds: from the SSE (160 degrees) at 7 MPH (6 knots; 3.1 m/s)
Visibility: 6 or more miles (10+ km)
Ceiling: 2900 feet AGL
Clouds: overcast cloud deck at 2900 feet AGL
Weather: no significant weather observed at this time

METAR text: NZWN 301930Z AUTO 16008KT 9999 BKN030/// 10/05 Q1020 NOSIG
Conditions at: NZWN (WELLINGTON INTL , NZ) observed 1930 UTC 30 September 2022
Temperature: 10.0°C (50°F)
Dewpoint: 5.0°C (41°F) [RH = 71%]
Pressure (altimeter): 30.12 inches Hg (1020.0 mb)
Winds: from the SSE (160 degrees) at 9 MPH (8 knots; 4.1 m/s)
Visibility: 6 or more miles (10+ km)
Ceiling: 3000 feet AGL
Clouds: broken clouds at 3000 feet AGL
Weather: no significant weather observed at this time

Forecast for: NZWN (WELLINGTON INTL , NZ)
Text: TAF NZWN 301703Z 3018/0200 16012KT 9999 -RA BKN030
Forecast period: 1800 UTC 30 September 2022 to 1200 UTC 01 October 2022
Forecast type: FROM: standard forecast or significant change
Winds: from the SSE (160 degrees) at 14 MPH (12 knots; 6.2 m/s)
Visibility: 6 or more miles (10+ km)
Ceiling: 3000 feet AGL
Clouds: broken clouds at 3000 feet AGL
Weather: -RA  (light rain)
Text: BECMG 0112/0114 17025G35KT
Forecast period: 1200 UTC 01 October 2022 to 0000 UTC 02 October 2022
Forecast type: BECOMING: Conditions expected to become as follows by 1400 UTC 01 October 2022
Winds: from the S (170 degrees) at 29 MPH (25 knots; 12.9 m/s)
gusting to 40 MPH (35 knots; 18.0 m/s)
Visibility: 6 or more miles (10+ km)
Ceiling: 3000 feet AGL
Clouds: broken clouds at 3000 feet AGL
Weather: -RA  (light rain)
Text: TEMPO 0115/0200 6000 RA BKN014
Forecast period: 1500 UTC 01 October 2022 to 0000 UTC 02 October 2022
Forecast type: TEMPORARY: The following changes expected for less than half the time period
Visibility: 4 miles (6 km)
Ceiling: 1400 feet AGL
Clouds: broken clouds at 1400 feet AGL
Weather: RA  (moderate rain)